M/y Kaiser — ZGAY5 — position and weather

sailwx.info

Track history (hours):
 
Tides and Currents Weather Stations Pressure Air Temp Water Temp Dewpoint Dewpoint Depression Visibility Wind Speed Wind Dir Waves Ship Positions

M/y Kaiser

Last reported at 2017-Dec-04 02:01 UTC. Time now 2017-Dec-11 13:25 UTC.
Position N 36°28' E 024°04'.

Length 60 m; draft 3.5 m.

Type: Pleasure craft. MMSI: 319022600.

Date/timePositionNaut miles runAvg speedWind from/ knotsBaromVisibWave heightAir tempDewpointWater temp
2017-Dec-04 02:01N 36°28' E 024°04'013.6
2017-Dec-04 02:00N 36°28' E 024°04'713.7
2017-Dec-04 01:30N 36°29' E 024°12'713.5
2017-Dec-04 01:00N 36°30' E 024°21'713.1
2017-Dec-04 00:30N 36°31' E 024°29'713.2
2017-Dec-04 00:00N 36°31' E 024°37'713.3
2017-Dec-03 23:30N 36°32' E 024°45'713.4
2017-Dec-03 23:00N 36°32' E 024°53'713.4
2017-Dec-03 22:30N 36°33' E 025°02'713.6
2017-Dec-03 22:01N 36°34' E 025°10'713.6
2017-Dec-03 21:30N 36°35' E 025°18'713.6
2017-Dec-03 21:00N 36°37' E 025°26'713.4
2017-Dec-03 20:30N 36°39' E 025°34'713.4
2017-Dec-03 20:00N 36°42' E 025°42'713.5
2017-Dec-03 19:30N 36°43' E 025°50'713.5
2017-Dec-03 19:00N 36°44' E 025°59'713.3
2017-Dec-03 18:30N 36°46' E 026°07'713.2
2017-Dec-03 18:00N 36°47' E 026°15'713.0
2017-Dec-03 17:30N 36°48' E 026°23'713.3
2017-Dec-03 17:00N 36°49' E 026°31'713.2
2017-Dec-03 16:30N 36°50' E 026°39'713.2
2017-Dec-03 16:00N 36°51' E 026°48'2412.5
2017-Dec-03 14:05N 37°04' E 027°12'  
Track history (hours):
 
Tides and Currents Weather Stations Pressure Air Temp Water Temp Dewpoint Dewpoint Depression Visibility Wind Speed Wind Dir Waves Ship Positions

M/y Kaiser

Last reported at 2017-Dec-04 02:01 UTC. Time now 2017-Dec-11 13:25 UTC.
Position N 36°28' E 024°04'.

Length 60 m; draft 3.5 m.

Type: Pleasure craft. MMSI: 319022600.

Date/timePositionNaut miles runAvg speedWind from/ knotsBaromVisibWave heightAir tempDewpointWater temp
2017-Dec-04 02:01N 36°28' E 024°04'013.6
2017-Dec-04 02:00N 36°28' E 024°04'713.7
2017-Dec-04 01:30N 36°29' E 024°12'713.5
2017-Dec-04 01:00N 36°30' E 024°21'713.1
2017-Dec-04 00:30N 36°31' E 024°29'713.2
2017-Dec-04 00:00N 36°31' E 024°37'713.3
2017-Dec-03 23:30N 36°32' E 024°45'713.4
2017-Dec-03 23:00N 36°32' E 024°53'713.4
2017-Dec-03 22:30N 36°33' E 025°02'713.6
2017-Dec-03 22:01N 36°34' E 025°10'713.6
2017-Dec-03 21:30N 36°35' E 025°18'713.6
2017-Dec-03 21:00N 36°37' E 025°26'713.4
2017-Dec-03 20:30N 36°39' E 025°34'713.4
2017-Dec-03 20:00N 36°42' E 025°42'713.5
2017-Dec-03 19:30N 36°43' E 025°50'713.5
2017-Dec-03 19:00N 36°44' E 025°59'713.3
2017-Dec-03 18:30N 36°46' E 026°07'713.2
2017-Dec-03 18:00N 36°47' E 026°15'713.0
2017-Dec-03 17:30N 36°48' E 026°23'713.3
2017-Dec-03 17:00N 36°49' E 026°31'713.2
2017-Dec-03 16:30N 36°50' E 026°39'713.2
2017-Dec-03 16:00N 36°51' E 026°48'2412.5
2017-Dec-03 14:05N 37°04' E 027°12'  

Dump ship's entire track history